createdAt,value
2023-01-23T00:00:04.723Z,4.20
2023-01-23T00:02:33.988Z,4.60
2023-01-23T00:05:01.824Z,4.27
2023-01-23T00:07:29.758Z,4.10
2023-01-23T00:09:57.663Z,4.67
2023-01-23T00:12:25.687Z,4.40
2023-01-23T00:14:53.541Z,4.37
2023-01-23T00:17:21.428Z,4.53
2023-01-23T00:19:50.681Z,4.33
2023-01-23T00:22:18.625Z,4.53
2023-01-23T00:24:46.551Z,4.47
2023-01-23T00:27:14.414Z,4.37
2023-01-23T00:29:42.272Z,4.23
2023-01-23T00:32:10.141Z,4.77
2023-01-23T00:34:38.763Z,4.57
2023-01-23T00:37:08.091Z,4.83
2023-01-23T00:39:36.206Z,4.70
2023-01-23T00:42:04.111Z,5.00
2023-01-23T00:44:32.052Z,5.03
2023-01-23T00:46:59.881Z,5.13
2023-01-23T00:49:27.747Z,4.60
2023-01-23T00:51:56.482Z,5.00
2023-01-23T00:54:26.346Z,5.43
2023-01-23T00:56:54.228Z,4.73
2023-01-23T00:59:22.123Z,5.00
2023-01-23T01:01:50.069Z,4.97
2023-01-23T01:04:17.981Z,3.93
2023-01-23T01:06:45.878Z,4.27
2023-01-23T01:09:13.762Z,4.90
2023-01-23T01:11:42.984Z,4.70
2023-01-23T01:14:10.831Z,4.67
2023-01-23T01:16:40.903Z,5.27
2023-01-23T01:19:08.787Z,5.13
2023-01-23T01:21:37.011Z,5.57
2023-01-23T01:24:05.053Z,5.67
2023-01-23T01:26:32.945Z,5.10
2023-01-23T01:29:02.234Z,5.20
2023-01-23T01:31:30.178Z,4.80
2023-01-23T01:33:58.079Z,5.00
2023-01-23T01:36:27.083Z,5.00
2023-01-23T01:38:54.943Z,5.30
2023-01-23T01:41:22.823Z,4.77
2023-01-23T01:43:51.202Z,4.70
2023-01-23T01:46:22.124Z,4.87
2023-01-23T01:48:53.605Z,4.40
2023-01-23T01:51:26.070Z,4.23
2023-01-23T01:53:58.169Z,4.70
2023-01-23T01:56:26.035Z,3.57
2023-01-23T01:58:53.900Z,4.77
2023-01-23T02:01:23.185Z,4.83
2023-01-23T02:03:51.247Z,4.80
2023-01-23T02:06:19.362Z,4.67
2023-01-23T02:08:50.305Z,4.50
2023-01-23T02:11:18.608Z,4.80
2023-01-23T02:13:46.486Z,4.27
2023-01-23T02:16:15.486Z,4.90
2023-01-23T02:18:47.256Z,4.40
2023-01-23T02:21:15.873Z,5.00
2023-01-23T02:23:49.002Z,4.77
2023-01-23T02:26:19.588Z,4.80
2023-01-23T02:28:48.295Z,5.53
2023-01-23T02:31:16.299Z,5.23
2023-01-23T02:33:46.617Z,5.20
2023-01-23T02:36:14.560Z,4.40
2023-01-23T02:38:46.612Z,4.63
2023-01-23T02:41:14.467Z,5.07
2023-01-23T02:43:43.776Z,4.90
2023-01-23T02:46:12.523Z,4.93
2023-01-23T02:48:41.085Z,4.47
2023-01-23T02:51:09.013Z,4.73
2023-01-23T02:53:36.932Z,5.10
2023-01-23T02:56:05.009Z,4.90
2023-01-23T02:58:50.194Z,5.10
2023-01-23T03:01:19.542Z,4.67
2023-01-23T03:03:47.434Z,5.17
2023-01-23T03:06:15.361Z,5.00
2023-01-23T03:08:47.774Z,4.90
2023-01-23T03:11:16.409Z,4.70
2023-01-23T03:13:45.005Z,4.87
2023-01-23T03:16:13.094Z,5.10
2023-01-23T03:18:53.564Z,4.67
2023-01-23T03:21:22.313Z,4.53
2023-01-23T03:23:50.344Z,4.33
2023-01-23T03:26:18.209Z,5.03
2023-01-23T03:29:03.637Z,5.17
2023-01-23T03:31:31.558Z,4.63
2023-01-23T03:34:00.996Z,4.93
2023-01-23T03:36:28.989Z,4.97
2023-01-23T03:39:14.500Z,4.90
2023-01-23T03:41:45.733Z,4.73
2023-01-23T03:44:13.900Z,4.17
2023-01-23T03:46:41.793Z,4.20
2023-01-23T03:49:11.063Z,4.60
2023-01-23T03:51:38.962Z,4.53
2023-01-23T03:54:06.938Z,4.53
2023-01-23T03:56:34.835Z,4.73
2023-01-23T03:59:02.691Z,4.60
2023-01-23T04:01:30.581Z,4.67
2023-01-23T04:03:58.453Z,5.00
2023-01-23T04:06:28.652Z,5.10
2023-01-23T04:08:57.229Z,4.70
2023-01-23T04:11:26.438Z,4.77
2023-01-23T04:13:54.404Z,5.00
2023-01-23T04:16:22.812Z,5.53
2023-01-23T04:18:50.753Z,5.13
2023-01-23T04:21:18.718Z,5.20
2023-01-23T04:23:47.934Z,4.90
2023-01-23T04:26:15.841Z,4.87
2023-01-23T04:28:43.740Z,4.57
2023-01-23T04:31:11.703Z,5.40
2023-01-23T04:33:39.647Z,5.20
2023-01-23T04:36:08.499Z,5.20
2023-01-23T04:38:36.343Z,5.10
2023-01-23T04:41:05.888Z,5.23
2023-01-23T04:43:33.784Z,5.47
2023-01-23T04:46:01.723Z,5.50
2023-01-23T04:48:29.587Z,5.40
2023-01-23T04:50:57.511Z,5.97
2023-01-23T04:53:25.481Z,5.47
2023-01-23T04:55:53.367Z,5.57
2023-01-23T04:58:22.656Z,5.83
2023-01-23T05:00:50.568Z,5.63
2023-01-23T05:03:18.506Z,5.37
2023-01-23T05:05:46.983Z,4.80
2023-01-23T05:08:14.935Z,5.90
2023-01-23T05:10:42.795Z,6.37
2023-01-23T05:13:10.760Z,5.37
2023-01-23T05:15:40.046Z,5.57
2023-01-23T05:18:07.923Z,5.70
2023-01-23T05:20:35.818Z,5.10
2023-01-23T05:23:03.719Z,5.43
2023-01-23T05:25:31.573Z,5.67
2023-01-23T05:27:59.947Z,5.40
2023-01-23T05:30:27.857Z,5.03
2023-01-23T05:32:57.136Z,5.70
2023-01-23T05:35:25.035Z,4.90
2023-01-23T05:37:52.910Z,5.57
2023-01-23T05:40:21.965Z,5.37
2023-01-23T05:42:50.050Z,5.27
2023-01-23T05:45:18.099Z,5.43
2023-01-23T05:47:46.063Z,5.40
2023-01-23T05:50:17.121Z,5.43
2023-01-23T05:52:45.102Z,5.80
2023-01-23T05:55:13.125Z,5.83
2023-01-23T05:57:40.981Z,6.30
2023-01-23T06:00:09.945Z,5.80
2023-01-23T06:02:37.874Z,5.83
2023-01-23T06:05:06.520Z,5.33
2023-01-23T06:07:35.782Z,6.37
2023-01-23T06:10:03.626Z,6.03
2023-01-23T06:12:31.508Z,5.60
2023-01-23T06:14:59.343Z,5.70
2023-01-23T06:17:27.262Z,5.93
2023-01-23T06:19:55.149Z,5.83
2023-01-23T06:22:23.322Z,5.70
2023-01-23T06:24:53.508Z,5.60
2023-01-23T06:27:21.405Z,6.00
2023-01-23T06:29:49.419Z,5.90
2023-01-23T06:32:17.340Z,6.03
2023-01-23T06:34:45.224Z,5.73
2023-01-23T06:37:13.069Z,5.83
2023-01-23T06:39:41.140Z,6.07
2023-01-23T06:42:10.862Z,5.57
2023-01-23T06:44:38.773Z,6.33
2023-01-23T06:47:06.692Z,5.97
2023-01-23T06:49:34.808Z,6.10
2023-01-23T06:52:02.688Z,6.63
2023-01-23T06:54:30.556Z,6.40
2023-01-23T06:56:58.445Z,6.30
2023-01-23T06:59:27.716Z,6.13
2023-01-23T07:01:55.687Z,6.30
2023-01-23T07:04:23.669Z,7.07
2023-01-23T07:06:51.624Z,6.57
2023-01-23T07:09:19.517Z,7.13
2023-01-23T07:11:47.472Z,6.03
2023-01-23T07:14:15.325Z,6.53
2023-01-23T07:16:44.562Z,6.80
2023-01-23T07:19:12.634Z,6.77
2023-01-23T07:21:40.553Z,7.67
2023-01-23T07:24:08.596Z,7.50
2023-01-23T07:26:36.509Z,6.50
2023-01-23T07:29:04.980Z,6.90
2023-01-23T07:31:32.878Z,7.10
2023-01-23T07:34:02.777Z,7.40
2023-01-23T07:36:30.748Z,7.10
2023-01-23T07:38:59.405Z,7.00
2023-01-23T07:41:27.333Z,8.13
2023-01-23T07:43:55.255Z,7.60
2023-01-23T07:46:23.817Z,7.13
2023-01-23T07:48:51.792Z,7.07
2023-01-23T07:51:21.988Z,7.27
2023-01-23T07:53:49.892Z,7.30
2023-01-23T07:56:17.743Z,7.90
2023-01-23T07:58:45.599Z,7.80
2023-01-23T08:01:13.563Z,7.93
2023-01-23T08:03:41.525Z,7.97
2023-01-23T08:06:09.609Z,8.07
2023-01-23T08:08:38.986Z,8.00
2023-01-23T08:11:07.256Z,8.27
2023-01-23T08:13:35.123Z,8.00
2023-01-23T08:16:03.053Z,8.47
2023-01-23T08:18:31.175Z,7.90
2023-01-23T08:20:59.681Z,7.87
2023-01-23T08:23:27.770Z,7.47
2023-01-23T08:25:57.443Z,7.57
2023-01-23T08:28:25.512Z,8.23
2023-01-23T08:30:53.498Z,8.27
2023-01-23T08:33:21.802Z,8.20
2023-01-23T08:35:50.669Z,8.03
2023-01-23T08:38:19.341Z,7.87
2023-01-23T08:40:49.781Z,7.93
2023-01-23T08:43:19.632Z,9.13
2023-01-23T08:45:50.108Z,8.30
2023-01-23T08:48:18.115Z,8.27
2023-01-23T08:50:46.162Z,7.93
2023-01-23T08:53:14.216Z,7.67
2023-01-23T08:55:42.382Z,8.33
2023-01-23T08:58:13.190Z,8.70
2023-01-23T09:00:42.892Z,8.27
2023-01-23T09:03:11.548Z,8.07
2023-01-23T09:05:39.621Z,8.00
2023-01-23T09:08:07.530Z,9.03
2023-01-23T09:10:36.408Z,8.50
2023-01-23T09:13:04.352Z,9.10
2023-01-23T09:15:32.465Z,8.77
2023-01-23T09:18:01.730Z,10.20
2023-01-23T09:20:29.691Z,9.13
2023-01-23T09:22:57.608Z,8.70
2023-01-23T09:25:25.463Z,9.73
2023-01-23T09:27:53.342Z,9.03
2023-01-23T09:30:21.762Z,9.13
2023-01-23T09:32:49.892Z,9.43
2023-01-23T09:35:19.178Z,10.10
2023-01-23T09:38:02.339Z,9.17
2023-01-23T09:40:31.652Z,8.77
2023-01-23T09:43:01.579Z,9.17
2023-01-23T09:45:29.462Z,8.30
2023-01-23T09:48:00.297Z,8.67
2023-01-23T09:50:30.775Z,9.53
2023-01-23T09:53:00.916Z,9.07
2023-01-23T09:55:34.799Z,9.63
2023-01-23T09:58:03.518Z,9.77
2023-01-23T10:00:32.138Z,10.00
2023-01-23T10:03:01.260Z,9.40
2023-01-23T10:05:32.999Z,9.30
2023-01-23T10:08:06.626Z,9.63
2023-01-23T10:10:44.336Z,9.50
2023-01-23T10:13:16.510Z,9.70
2023-01-23T10:16:01.442Z,9.07
2023-01-23T10:18:31.736Z,9.77
2023-01-23T10:21:07.039Z,9.47
2023-01-23T10:23:43.071Z,10.07
2023-01-23T10:26:14.202Z,10.20
2023-01-23T10:28:42.134Z,9.40
2023-01-23T10:31:12.464Z,9.10
2023-01-23T10:33:43.466Z,10.40
2023-01-23T10:36:23.621Z,9.10
2023-01-23T10:38:57.943Z,9.77
2023-01-23T10:41:25.947Z,9.67
2023-01-23T10:43:54.919Z,9.80
2023-01-23T10:46:23.997Z,10.37
2023-01-23T10:48:52.240Z,10.67
2023-01-23T10:51:35.451Z,10.47
2023-01-23T10:54:08.481Z,11.07
2023-01-23T10:56:37.618Z,12.33
2023-01-23T10:59:06.528Z,10.93
2023-01-23T11:01:35.248Z,11.30
2023-01-23T11:04:11.327Z,11.03
2023-01-23T11:06:40.611Z,10.60
2023-01-23T11:09:19.852Z,10.10
2023-01-23T11:12:05.635Z,10.60
2023-01-23T11:14:33.608Z,10.20
2023-01-23T11:17:06.897Z,10.60
2023-01-23T11:19:34.812Z,9.67
2023-01-23T11:22:04.144Z,10.03
2023-01-23T11:24:40.170Z,9.67
2023-01-23T11:27:18.536Z,9.87
2023-01-23T11:29:55.055Z,10.53
2023-01-23T11:32:23.097Z,10.63
2023-01-23T11:34:53.033Z,10.57
2023-01-23T11:37:23.777Z,10.70
2023-01-23T11:39:54.057Z,10.57
2023-01-23T11:42:21.970Z,10.00
2023-01-23T11:44:51.232Z,9.80
2023-01-23T11:47:32.858Z,9.93
2023-01-23T11:50:30.144Z,10.67
2023-01-23T11:53:03.505Z,10.53
2023-01-23T11:55:53.361Z,10.33
2023-01-23T11:58:49.040Z,12.50
2023-01-23T12:01:20.201Z,11.13
2023-01-23T12:04:29.582Z,11.10
2023-01-23T12:07:21.669Z,9.83
2023-01-23T12:09:56.317Z,9.90
2023-01-23T12:12:30.490Z,9.03
2023-01-23T12:15:07.358Z,9.73
2023-01-23T12:17:40.397Z,10.20
2023-01-23T12:20:32.461Z,9.80
2023-01-23T12:23:16.745Z,9.83
2023-01-23T12:25:48.072Z,9.40
2023-01-23T12:28:25.055Z,10.17
2023-01-23T12:31:22.176Z,11.37
2023-01-23T12:33:57.501Z,10.67
2023-01-23T12:36:59.515Z,11.20
2023-01-23T12:39:53.403Z,11.87
2023-01-23T12:42:23.319Z,11.30
2023-01-23T12:44:57.477Z,12.10
2023-01-23T12:47:26.434Z,11.00
2023-01-23T12:49:56.630Z,11.83
2023-01-23T12:52:25.789Z,11.17
2023-01-23T12:54:57.039Z,12.47
2023-01-23T13:00:26.728Z,12.33
2023-01-23T13:02:58.334Z,11.60
2023-01-23T13:05:28.692Z,12.50
2023-01-23T13:07:58.080Z,12.43
2023-01-23T13:10:51.296Z,14.30
2023-01-23T13:13:19.315Z,12.43
2023-01-23T13:16:02.695Z,13.03
2023-01-23T13:18:50.599Z,13.07
2023-01-23T13:21:35.763Z,12.53
2023-01-23T13:24:38.392Z,12.70
2023-01-23T13:27:36.814Z,11.83
2023-01-23T13:30:06.672Z,13.37
2023-01-23T13:32:35.997Z,11.83
2023-01-23T13:35:03.921Z,12.00
2023-01-23T13:37:51.437Z,12.67
2023-01-23T13:40:21.614Z,15.93
2023-01-23T13:42:49.512Z,14.87
2023-01-23T13:45:27.056Z,14.70
2023-01-23T14:22:21.910Z,14.37
2023-01-23T14:24:52.194Z,12.23
2023-01-23T14:27:21.970Z,12.60
2023-01-23T14:29:57.341Z,11.07
2023-01-23T14:32:25.358Z,11.53
2023-01-23T14:34:53.282Z,11.80
2023-01-23T14:37:21.158Z,11.20
2023-01-23T14:39:53.056Z,11.83
2023-01-23T14:42:24.522Z,13.03
2023-01-23T14:44:52.401Z,13.67
2023-01-23T14:47:24.567Z,12.83
2023-01-23T14:49:52.932Z,13.63
2023-01-23T14:52:23.311Z,13.87
2023-01-23T14:54:54.175Z,15.17
2023-01-23T14:57:24.912Z,14.40
2023-01-23T14:59:54.323Z,14.93
2023-01-23T15:02:27.206Z,15.60
2023-01-23T15:05:11.777Z,15.20
2023-01-23T15:07:44.073Z,14.27
2023-01-23T15:10:16.116Z,14.97
2023-01-23T15:12:51.479Z,14.20
2023-01-23T15:15:22.991Z,13.80
2023-01-23T15:17:51.231Z,13.67
2023-01-23T15:20:35.510Z,13.87
2023-01-23T15:23:28.443Z,14.37
2023-01-23T15:26:13.636Z,13.97
2023-01-23T15:28:49.316Z,13.37
2023-01-23T15:31:27.952Z,15.13
2023-01-23T15:33:55.932Z,13.60
2023-01-23T15:36:27.975Z,14.60
2023-01-23T15:38:56.201Z,15.20
2023-01-23T15:41:39.403Z,14.70
2023-01-23T15:44:14.094Z,15.30
2023-01-23T15:46:42.143Z,14.27
2023-01-23T15:49:23.637Z,15.33
2023-01-23T15:51:53.127Z,15.43
2023-01-23T15:54:26.032Z,15.77
2023-01-23T15:57:06.639Z,14.70
2023-01-23T15:59:36.709Z,14.60
2023-01-23T16:02:04.710Z,15.40
2023-01-23T16:04:32.614Z,15.27
2023-01-23T16:07:01.258Z,18.83
2023-01-23T16:09:30.847Z,19.10
2023-01-23T16:11:58.902Z,18.63
2023-01-23T16:14:26.827Z,15.67
2023-01-23T16:16:58.234Z,17.23
2023-01-23T16:19:32.534Z,18.47
2023-01-23T16:22:05.306Z,18.00
2023-01-23T16:24:35.121Z,17.90
2023-01-23T16:27:03.139Z,15.33
2023-01-23T16:29:31.742Z,23.63
2023-01-23T16:32:01.925Z,19.23
2023-01-23T16:34:29.933Z,24.30
2023-01-23T16:36:58.390Z,24.03
2023-01-23T16:39:27.839Z,24.63
2023-01-23T16:41:55.959Z,21.40
2023-01-23T16:44:24.851Z,17.10
2023-01-23T16:46:53.322Z,15.27
2023-01-23T16:49:22.589Z,14.07
2023-01-23T16:51:55.687Z,13.13
2023-01-23T16:54:23.595Z,13.70
2023-01-23T16:56:52.812Z,13.83
2023-01-23T16:59:21.987Z,14.50
2023-01-23T17:01:51.025Z,13.17
2023-01-23T17:04:20.275Z,15.37
2023-01-23T17:06:49.862Z,13.97
2023-01-23T17:09:17.888Z,13.80
2023-01-23T17:11:46.939Z,15.00
2023-01-23T17:14:16.554Z,15.53
2023-01-23T17:16:44.533Z,15.00
2023-01-23T17:19:27.866Z,14.93
2023-01-23T17:21:57.288Z,14.40
2023-01-23T17:24:25.127Z,14.33
2023-01-23T17:26:53.003Z,20.40
2023-01-23T17:29:21.021Z,34.47
2023-01-23T17:31:49.121Z,28.00
2023-01-23T17:34:21.125Z,18.83
2023-01-23T17:36:49.016Z,16.87
2023-01-23T17:39:19.465Z,16.43
2023-01-23T17:41:48.419Z,19.23
2023-01-23T17:44:16.316Z,18.83
2023-01-23T17:46:44.494Z,19.60
2023-01-23T17:49:25.509Z,19.90
2023-01-23T17:51:53.463Z,20.50
2023-01-23T17:54:22.776Z,18.43
2023-01-23T17:56:50.698Z,20.03
2023-01-23T17:59:18.654Z,20.73
2023-01-23T18:01:47.690Z,24.60
2023-01-23T18:04:16.758Z,30.13
2023-01-23T18:06:44.700Z,29.37
2023-01-23T18:09:12.579Z,25.83
2023-01-23T18:11:43.392Z,25.50
2023-01-23T18:14:26.634Z,29.77
2023-01-23T18:16:55.528Z,27.93
2023-01-23T18:19:24.487Z,26.10
2023-01-23T18:21:53.849Z,25.60
2023-01-23T18:24:26.419Z,24.83
2023-01-23T18:27:00.462Z,23.07
2023-01-23T18:29:35.300Z,23.30
2023-01-23T18:32:15.136Z,21.73
2023-01-23T18:34:44.887Z,23.13
2023-01-23T18:37:17.328Z,22.40
2023-01-23T18:40:05.675Z,24.33
2023-01-23T18:42:38.392Z,29.27
2023-01-23T18:45:10.396Z,35.10
2023-01-23T18:47:38.876Z,31.37
2023-01-23T18:50:08.409Z,32.00
2023-01-23T18:52:45.797Z,32.53
2023-01-23T18:55:18.725Z,29.90
2023-01-23T18:58:09.880Z,25.27
2023-01-23T19:00:40.866Z,23.23
2023-01-23T19:03:13.367Z,24.00
2023-01-23T19:05:41.423Z,23.67
2023-01-23T19:08:15.859Z,23.93
2023-01-23T19:10:48.580Z,23.23
2023-01-23T19:13:21.396Z,24.07
2023-01-23T19:15:56.820Z,29.23
2023-01-23T19:18:48.920Z,36.67
2023-01-23T19:21:20.615Z,33.27
2023-01-23T19:23:54.454Z,35.17
2023-01-23T19:26:22.881Z,27.93
2023-01-23T19:28:52.763Z,25.13
2023-01-23T19:31:22.530Z,23.87
2023-01-23T19:33:50.875Z,23.00
2023-01-23T19:36:18.877Z,23.53
2023-01-23T19:38:46.909Z,25.73
2023-01-23T19:41:19.685Z,24.03
2023-01-23T19:43:49.267Z,26.93
2023-01-23T19:46:18.767Z,25.63
2023-01-23T19:48:47.035Z,27.27
2023-01-23T19:51:16.540Z,29.53
2023-01-23T19:53:44.490Z,30.13
2023-01-23T19:56:12.795Z,27.00
2023-01-23T19:58:41.450Z,25.50
2023-01-23T20:01:18.925Z,26.43
2023-01-23T20:03:46.881Z,24.40
2023-01-23T20:06:14.796Z,22.27
2023-01-23T20:08:42.613Z,21.40
2023-01-23T20:11:11.212Z,22.60
2023-01-23T20:13:40.858Z,24.10
2023-01-23T20:16:10.185Z,23.37
2023-01-23T20:18:39.487Z,22.33
2023-01-23T20:21:07.401Z,25.40
2023-01-23T20:23:35.289Z,24.57
2023-01-23T20:26:03.776Z,24.67
2023-01-23T20:28:31.678Z,26.67
2023-01-23T20:31:04.732Z,25.57
2023-01-23T20:33:32.645Z,32.63
2023-01-23T20:36:01.939Z,30.80
2023-01-23T20:38:29.873Z,35.77
2023-01-23T20:41:03.555Z,26.40
2023-01-23T20:43:31.453Z,25.30
2023-01-23T20:45:59.407Z,25.50
2023-01-23T20:48:27.291Z,23.27
2023-01-23T20:50:56.066Z,23.67
2023-01-23T20:53:30.155Z,23.60
2023-01-23T20:55:58.629Z,24.37
2023-01-23T20:58:44.049Z,22.67
2023-01-23T21:01:12.155Z,21.37
2023-01-23T21:03:40.619Z,21.67
2023-01-23T21:06:08.706Z,20.57
2023-01-23T21:08:37.944Z,23.43
2023-01-23T21:11:07.138Z,23.53
2023-01-23T21:13:35.327Z,22.67
2023-01-23T21:16:04.594Z,21.73
2023-01-23T21:18:32.637Z,21.23
2023-01-23T21:21:04.185Z,21.23
2023-01-23T21:23:32.083Z,23.60
2023-01-23T21:26:01.595Z,25.10
2023-01-23T21:28:30.052Z,25.77
2023-01-23T21:30:58.056Z,29.60
2023-01-23T21:33:26.212Z,26.27
2023-01-23T21:35:54.860Z,20.80
2023-01-23T21:38:22.954Z,17.40
2023-01-23T21:40:51.778Z,18.97
2023-01-23T21:43:21.101Z,17.80
2023-01-23T21:45:49.131Z,17.63
2023-01-23T21:48:16.979Z,16.93
2023-01-23T21:50:44.828Z,16.57
2023-01-23T21:53:12.752Z,15.27
2023-01-23T21:55:40.615Z,16.17
2023-01-23T21:58:08.505Z,15.90
2023-01-23T22:00:55.031Z,15.63
2023-01-23T22:03:23.317Z,18.10
2023-01-23T22:05:51.239Z,18.57
2023-01-23T22:08:19.337Z,20.33
2023-01-23T22:10:47.220Z,18.17
2023-01-23T22:13:15.140Z,20.27
2023-01-23T22:15:44.466Z,17.87
2023-01-23T22:18:12.421Z,18.47
2023-01-23T22:20:40.278Z,17.57
2023-01-23T22:23:08.166Z,19.73
2023-01-23T22:25:36.080Z,19.80
2023-01-23T22:28:03.982Z,20.80
2023-01-23T22:30:31.877Z,21.77
2023-01-23T22:33:01.223Z,22.00
2023-01-23T22:35:29.116Z,22.03
2023-01-23T22:37:57.010Z,22.50
2023-01-23T22:40:24.929Z,22.83
2023-01-23T22:42:52.819Z,21.43
2023-01-23T22:45:21.020Z,20.13
2023-01-23T22:47:49.005Z,19.10
2023-01-23T22:50:18.766Z,20.43
2023-01-23T22:52:46.769Z,18.93
2023-01-23T22:55:15.562Z,19.57
2023-01-23T22:57:43.591Z,18.03
2023-01-23T23:00:13.404Z,17.97
2023-01-23T23:02:41.296Z,17.03
2023-01-23T23:05:09.605Z,17.00
2023-01-23T23:07:38.872Z,18.17
2023-01-23T23:10:07.388Z,19.07
2023-01-23T23:12:35.335Z,17.30
2023-01-23T23:15:03.878Z,18.23
2023-01-23T23:17:31.878Z,17.70
2023-01-23T23:19:59.848Z,17.63
2023-01-23T23:22:27.741Z,17.27
2023-01-23T23:24:56.982Z,16.97
2023-01-23T23:27:24.920Z,17.80
2023-01-23T23:29:52.783Z,17.70
2023-01-23T23:32:20.930Z,16.87
2023-01-23T23:34:48.924Z,17.87
2023-01-23T23:37:16.783Z,17.70
2023-01-23T23:39:44.735Z,19.53
2023-01-23T23:42:13.976Z,19.93
2023-01-23T23:44:42.458Z,20.03
2023-01-23T23:47:10.279Z,18.97
2023-01-23T23:49:38.183Z,18.17
2023-01-23T23:52:06.104Z,18.43
2023-01-23T23:54:33.969Z,18.03
2023-01-23T23:57:01.865Z,18.70
2023-01-23T23:59:31.238Z,18.53
